Cliffland, Iowa
Current Conditions -  °F | °C
As of 4:53 AM on Sunday 21 Dec 2014 (Local Time) from KOTM Reporting Station
Overcast Overcast  
Wind Chill: 30°   Ceiling: 3400
Heat Index: 37°   Visibility: 8mi
Dew Point: 34°   Wind: 10mph
Humidity: 89%   Direction: 180°S
Pressure: 30.07"   Gusts: NA
Location:  41.0803°N, 92.3054°W
Report Text: KOTM 211053Z AUTO 18009KT 8SM OVC034 03/01 A3007 RMK AO2 SLP189 T00280011
Loading
Personal Weather Stations






























Interactive Weather Map New forecast layout! Learn more

10-Day Weather Forecast

Advertisements
Track Severe Weather on mobile